createdAt,value
2018-07-06T00:01:09.653Z,99630.13
2018-07-06T00:03:50.133Z,99624.81
2018-07-06T00:06:30.387Z,99621.04
2018-07-06T00:09:10.430Z,99620.87
2018-07-06T00:11:50.517Z,99613.88
2018-07-06T00:14:30.689Z,99609.56
2018-07-06T00:17:11.253Z,99616.02
2018-07-06T00:19:51.418Z,99615.58
2018-07-06T00:22:31.621Z,99616.92
2018-07-06T00:25:11.671Z,99632.12
2018-07-06T00:27:52.211Z,99654.59
2018-07-06T00:30:32.254Z,99680.41
2018-07-06T00:33:12.521Z,99680.58
2018-07-06T00:35:54.759Z,99681.22
2018-07-06T00:38:35.537Z,99680.95
2018-07-06T00:41:15.674Z,99682.43
2018-07-06T00:43:56.161Z,99685.30
2018-07-06T00:46:36.333Z,99673.47
2018-07-06T00:49:16.458Z,99680.03
2018-07-06T00:51:56.842Z,99675.91
2018-07-06T00:54:37.162Z,99680.12
2018-07-06T00:57:17.298Z,99676.03
2018-07-06T00:59:57.562Z,99680.48
2018-07-06T01:02:37.778Z,99667.67
2018-07-06T01:05:18.313Z,99678.36
2018-07-06T01:07:58.365Z,99678.48
2018-07-06T01:10:38.658Z,99677.72
2018-07-06T01:13:18.745Z,99684.28
2018-07-06T01:15:59.421Z,99678.89
2018-07-06T01:18:41.635Z,99679.19
2018-07-06T01:21:22.469Z,99676.12
2018-07-06T01:24:02.669Z,99674.31
2018-07-06T01:26:43.178Z,99674.02
2018-07-06T01:29:23.322Z,99678.06
2018-07-06T01:32:03.533Z,99673.06
2018-07-06T01:34:43.601Z,99673.83
2018-07-06T01:37:24.005Z,99668.14
2018-07-06T01:40:04.671Z,99671.17
2018-07-06T01:42:45.077Z,99672.30
2018-07-06T01:45:25.293Z,99670.41
2018-07-06T01:48:05.394Z,99662.65
2018-07-06T01:50:45.445Z,99664.04
2018-07-06T01:53:25.586Z,99671.37
2018-07-06T01:56:05.781Z,99678.41
2018-07-06T01:58:45.869Z,99684.38
2018-07-06T02:01:27.990Z,99672.20
2018-07-06T02:04:08.353Z,99676.55
2018-07-06T02:06:48.557Z,99679.53
2018-07-06T02:09:28.635Z,99683.58
2018-07-06T02:12:09.002Z,99676.55
2018-07-06T02:14:49.280Z,99685.86
2018-07-06T02:17:29.329Z,99686.91
2018-07-06T02:20:09.461Z,99687.42
2018-07-06T02:22:49.685Z,99697.38
2018-07-06T02:25:30.197Z,99700.02
2018-07-06T02:28:10.231Z,99703.87
2018-07-06T02:30:50.363Z,99706.22
2018-07-06T02:33:30.762Z,99709.38
2018-07-06T02:36:11.127Z,99709.89
2018-07-06T02:38:51.309Z,99711.23
2018-07-06T02:41:31.542Z,99716.92
2018-07-06T02:44:13.400Z,99709.38
2018-07-06T02:46:53.662Z,99710.73
2018-07-06T02:49:34.125Z,99711.95
2018-07-06T02:52:14.215Z,99708.12
2018-07-06T02:54:54.529Z,99718.69
2018-07-06T02:57:34.622Z,99718.31
2018-07-06T03:00:15.094Z,99715.78
2018-07-06T03:02:55.276Z,99711.74
2018-07-06T03:05:35.439Z,99715.48
2018-07-06T03:08:15.665Z,99723.88
2018-07-06T03:10:56.026Z,99718.19
2018-07-06T03:13:36.312Z,99728.38
2018-07-06T03:16:16.490Z,99732.41
2018-07-06T03:18:56.743Z,99736.11
2018-07-06T03:21:37.117Z,99734.98
2018-07-06T03:24:17.350Z,99746.54
2018-07-06T03:26:59.602Z,99742.63
2018-07-06T03:29:40.586Z,99752.32
2018-07-06T03:32:20.622Z,99750.45
2018-07-06T03:35:01.141Z,99747.41
2018-07-06T03:37:41.334Z,99750.85
2018-07-06T03:40:21.409Z,99751.81
2018-07-06T03:43:01.596Z,99758.70
2018-07-06T03:45:41.771Z,99768.94
2018-07-06T03:48:23.210Z,99759.91
2018-07-06T03:51:03.281Z,99757.67
2018-07-06T03:57:26.160Z,99768.59
2018-07-06T04:00:06.360Z,99777.11
2018-07-06T04:02:46.611Z,99781.89
2018-07-06T04:05:27.080Z,99781.64
2018-07-06T04:08:07.301Z,99787.68
2018-07-06T04:10:47.385Z,99803.48
2018-07-06T04:13:27.473Z,99802.00
2018-07-06T04:16:07.666Z,99800.36
2018-07-06T04:18:48.382Z,99805.73
2018-07-06T04:21:28.457Z,99803.70
2018-07-06T04:24:08.724Z,99807.68
2018-07-06T04:26:49.177Z,99808.42
2018-07-06T04:29:29.416Z,99810.20
2018-07-06T04:32:09.589Z,99819.21
2018-07-06T04:34:52.198Z,99817.93
2018-07-06T04:37:32.417Z,99819.58
2018-07-06T04:40:13.037Z,99822.50
2018-07-06T04:42:53.197Z,99832.64
2018-07-06T04:45:33.408Z,99829.34
2018-07-06T04:48:13.582Z,99831.13
2018-07-06T04:50:53.772Z,99838.16
2018-07-06T04:53:34.266Z,99837.73
2018-07-06T04:56:14.885Z,99848.20
2018-07-06T04:58:55.170Z,99842.20
2018-07-06T05:01:35.353Z,99841.43
2018-07-06T05:04:15.400Z,99848.66
2018-07-06T05:06:55.614Z,99849.70
2018-07-06T05:09:35.811Z,99859.11
2018-07-06T05:12:16.338Z,99862.16
2018-07-06T05:14:56.535Z,99874.03
2018-07-06T05:17:38.229Z,99865.59
2018-07-06T05:20:18.260Z,99884.34
2018-07-06T05:22:58.657Z,99879.75
2018-07-06T05:25:39.133Z,99887.30
2018-07-06T05:28:19.374Z,99889.98
2018-07-06T05:30:59.411Z,99897.05
2018-07-06T05:33:39.681Z,99893.03
2018-07-06T05:36:20.140Z,99903.25
2018-07-06T05:39:00.258Z,99911.36
2018-07-06T05:41:40.457Z,99918.87
2018-07-06T05:44:20.772Z,99924.55
2018-07-06T05:47:01.224Z,99934.72
2018-07-06T05:49:41.321Z,99934.86
2018-07-06T05:52:21.513Z,99937.68
2018-07-06T05:55:01.779Z,99937.31
2018-07-06T05:57:42.270Z,99935.69
2018-07-06T06:00:24.946Z,99938.69
2018-07-06T06:03:05.107Z,99929.12
2018-07-06T06:05:45.569Z,99932.59
2018-07-06T06:08:13.499Z,99928.64
2018-07-06T06:10:43.309Z,99932.28
2018-07-06T06:13:13.138Z,99932.37
2018-07-06T06:16:45.389Z,99933.78
2018-07-06T06:19:15.217Z,99933.04
2018-07-06T06:21:44.973Z,99935.73
2018-07-06T06:24:14.921Z,99933.34
2018-07-06T06:26:44.873Z,99927.44
2018-07-06T06:29:14.843Z,99929.59
2018-07-06T06:31:45.177Z,99929.88
2018-07-06T06:34:15.159Z,99927.64
2018-07-06T06:36:45.241Z,99929.88
2018-07-06T06:39:15.117Z,99932.45
2018-07-06T06:41:45.182Z,99932.08
2018-07-06T06:44:15.254Z,99934.19
2018-07-06T06:46:45.346Z,99932.58
2018-07-06T06:49:15.433Z,99941.14
2018-07-06T06:51:46.322Z,99945.71
2018-07-06T06:54:16.635Z,99949.53
2018-07-06T06:56:47.097Z,99955.19
2018-07-06T06:59:17.442Z,99955.94
2018-07-06T07:01:47.379Z,99959.95
2018-07-06T07:04:17.464Z,99958.28
2018-07-06T07:06:47.468Z,99956.93
2018-07-06T07:09:20.359Z,99956.45
2018-07-06T07:11:50.240Z,99956.58
2018-07-06T07:14:20.184Z,99960.32
2018-07-06T07:16:49.842Z,99963.61
2018-07-06T07:19:20.134Z,99959.45
2018-07-06T07:21:50.073Z,99956.48
2018-07-06T07:24:19.907Z,99953.12
2018-07-06T07:26:50.043Z,99961.45
2018-07-06T07:29:20.137Z,99955.45
2018-07-06T07:31:50.021Z,99964.66
2018-07-06T07:34:19.842Z,99966.66
2018-07-06T07:36:50.282Z,99963.40
2018-07-06T07:39:20.522Z,99969.34
2018-07-06T07:41:50.585Z,99970.77
2018-07-06T07:44:20.402Z,99974.44
2018-07-06T07:46:50.704Z,99977.47
2018-07-06T07:49:20.753Z,99971.25
2018-07-06T07:52:03.721Z,99977.63
2018-07-06T07:54:40.769Z,99976.69
2018-07-06T07:57:10.986Z,99974.94
2018-07-06T07:59:41.194Z,99980.94
2018-07-06T08:02:11.067Z,99982.04
2018-07-06T08:04:41.329Z,99979.42
2018-07-06T08:07:11.621Z,99987.22
2018-07-06T08:09:41.958Z,99992.14
2018-07-06T08:12:11.765Z,99986.23
2018-07-06T08:14:42.107Z,99986.48
2018-07-06T08:17:11.974Z,99988.03
2018-07-06T08:19:41.879Z,99995.78
2018-07-06T08:22:11.877Z,99995.34
2018-07-06T08:24:41.999Z,99999.56
2018-07-06T08:27:11.842Z,100001.48
2018-07-06T08:29:41.852Z,100006.30
2018-07-06T08:32:11.847Z,100009.50
2018-07-06T08:36:54.507Z,100006.41
2018-07-06T08:39:24.286Z,100020.73
2018-07-06T08:41:54.049Z,100015.90
2018-07-06T08:44:23.877Z,100016.19
2018-07-06T08:46:54.001Z,100023.02
2018-07-06T08:49:23.838Z,100023.83
2018-07-06T08:51:53.782Z,100020.25
2018-07-06T08:54:23.824Z,100026.94
2018-07-06T08:56:53.802Z,100021.00
2018-07-06T08:59:23.841Z,100026.45
2018-07-06T09:01:53.789Z,100022.47
2018-07-06T09:04:23.910Z,100026.94
2018-07-06T09:06:53.930Z,100022.67
2018-07-06T09:09:23.915Z,100027.54
2018-07-06T09:11:54.136Z,100032.98
2018-07-06T09:14:23.982Z,100027.63
2018-07-06T09:16:53.839Z,100027.44
2018-07-06T09:19:24.037Z,100031.52
2018-07-06T09:21:54.035Z,100027.54
2018-07-06T09:24:23.914Z,100036.35
2018-07-06T09:26:53.789Z,100035.14
2018-07-06T09:29:23.808Z,100028.38
2018-07-06T09:31:53.587Z,100031.73
2018-07-06T09:34:23.968Z,100032.61
2018-07-06T09:36:54.045Z,100030.89
2018-07-06T09:39:23.845Z,100026.25
2018-07-06T09:41:53.874Z,100034.56
2018-07-06T09:45:25.990Z,100042.34
2018-07-06T09:47:55.857Z,100036.84
2018-07-06T09:50:26.154Z,100029.53
2018-07-06T09:52:55.977Z,100034.20
2018-07-06T09:55:25.997Z,100033.26
2018-07-06T09:57:55.904Z,100036.39
2018-07-06T10:00:30.785Z,100037.18
2018-07-06T10:03:00.922Z,100041.04
2018-07-06T10:05:31.044Z,100035.05
2018-07-06T10:08:00.893Z,100038.00
2018-07-06T10:10:30.918Z,100032.34
2018-07-06T10:13:00.853Z,100029.63
2018-07-06T10:15:30.940Z,100037.43
2018-07-06T10:18:00.896Z,100041.84
2018-07-06T10:20:30.982Z,100045.61
2018-07-06T10:23:00.910Z,100042.48
2018-07-06T10:25:31.025Z,100042.11
2018-07-06T10:28:30.221Z,100038.79
2018-07-06T10:31:10.437Z,100037.77
2018-07-06T10:33:40.484Z,100036.72
2018-07-06T10:36:10.469Z,100022.17
2018-07-06T10:38:40.321Z,100029.48
2018-07-06T10:41:10.239Z,100022.34
2018-07-06T10:43:40.054Z,100023.75
2018-07-06T10:46:10.041Z,100019.27
2018-07-06T10:48:39.754Z,100020.11
2018-07-06T10:51:10.057Z,100024.55
2018-07-06T10:53:39.894Z,100028.91
2018-07-06T10:56:09.950Z,100030.83
2018-07-06T10:58:39.859Z,100028.31
2018-07-06T11:01:09.983Z,100026.30
2018-07-06T11:03:40.183Z,100035.47
2018-07-06T11:06:10.018Z,100040.22
2018-07-06T11:08:39.847Z,100029.55
2018-07-06T11:11:09.986Z,100030.86
2018-07-06T11:13:39.837Z,100024.70
2018-07-06T11:16:09.978Z,100025.30
2018-07-06T11:18:39.923Z,100027.26
2018-07-06T11:21:09.809Z,100029.91
2018-07-06T11:23:39.962Z,100031.73
2018-07-06T11:26:09.893Z,100028.04
2018-07-06T11:28:39.731Z,100019.66
2018-07-06T11:31:09.789Z,100029.55
2018-07-06T11:33:39.857Z,100019.41
2018-07-06T11:36:10.131Z,100027.76
2018-07-06T11:38:39.847Z,100029.78
2018-07-06T11:41:09.839Z,100024.80
2018-07-06T11:43:39.761Z,100016.28
2018-07-06T11:46:09.868Z,100009.63
2018-07-06T11:48:39.924Z,100009.22
2018-07-06T11:51:10.508Z,100012.53
2018-07-06T11:53:40.252Z,100005.73
2018-07-06T11:56:10.238Z,100004.45
2018-07-06T11:58:40.258Z,100002.89
2018-07-06T12:01:10.080Z,99978.46
2018-07-06T12:03:41.390Z,100000.72
2018-07-06T12:06:11.118Z,99996.94
2018-07-06T12:08:41.190Z,100000.85
2018-07-06T12:11:10.933Z,99996.48
2018-07-06T12:13:40.784Z,99997.04
2018-07-06T12:16:10.847Z,100000.04
2018-07-06T12:18:40.912Z,99998.68
2018-07-06T12:21:10.952Z,100001.13
2018-07-06T12:23:40.946Z,99996.19
2018-07-06T12:26:10.773Z,100006.31
2018-07-06T12:28:40.727Z,99998.66
2018-07-06T12:31:11.033Z,99999.50
2018-07-06T12:33:40.744Z,100004.68
2018-07-06T12:36:10.827Z,100004.13
2018-07-06T12:38:40.798Z,100007.42
2018-07-06T12:41:10.837Z,99997.02
2018-07-06T12:43:40.794Z,99994.84
2018-07-06T12:46:10.756Z,99987.75
2018-07-06T12:48:40.753Z,100001.53
2018-07-06T12:51:10.782Z,99993.38
2018-07-06T12:53:40.834Z,99993.13
2018-07-06T12:56:10.898Z,99992.94
2018-07-06T12:58:41.035Z,100006.86
2018-07-06T13:01:10.933Z,99998.95
2018-07-06T13:03:40.746Z,99988.56
2018-07-06T13:06:10.815Z,99987.77
2018-07-06T13:08:40.765Z,99989.95
2018-07-06T13:11:10.803Z,100000.30
2018-07-06T13:13:40.741Z,99985.06
2018-07-06T13:16:10.877Z,99978.48
2018-07-06T13:18:40.810Z,99980.36
2018-07-06T13:21:11.246Z,99980.94
2018-07-06T13:23:40.994Z,99983.66
2018-07-06T13:26:10.869Z,99974.39
2018-07-06T13:28:40.903Z,99974.41
2018-07-06T13:31:11.598Z,99984.75
2018-07-06T13:33:41.488Z,99977.13
2018-07-06T13:36:13.274Z,99972.77
2018-07-06T13:38:43.146Z,99967.00
2018-07-06T13:41:12.943Z,99977.66
2018-07-06T13:43:42.799Z,99982.86
2018-07-06T13:46:12.793Z,99977.39
2018-07-06T13:48:42.871Z,99972.20
2018-07-06T13:51:12.907Z,99970.85
2018-07-06T13:53:42.834Z,99968.38
2018-07-06T13:56:12.820Z,99976.30
2018-07-06T13:58:42.915Z,99971.94
2018-07-06T14:01:12.826Z,99970.03
2018-07-06T14:03:42.914Z,99977.41
2018-07-06T14:06:12.797Z,99983.95
2018-07-06T14:08:42.848Z,99975.22
2018-07-06T14:11:12.877Z,99975.48
2018-07-06T14:13:42.846Z,99980.94
2018-07-06T14:16:12.789Z,99973.23
2018-07-06T14:18:42.838Z,99985.03
2018-07-06T14:21:12.855Z,99983.04
2018-07-06T14:23:42.914Z,99990.48
2018-07-06T14:26:12.792Z,99980.95
2018-07-06T14:28:42.880Z,99978.46
2018-07-06T14:31:12.848Z,99979.05
2018-07-06T14:33:42.853Z,99985.56
2018-07-06T14:36:12.798Z,99983.41
2018-07-06T14:38:42.936Z,99978.18
2018-07-06T14:41:12.928Z,99969.13
2018-07-06T14:43:42.909Z,99980.31
2018-07-06T14:46:12.838Z,99978.69
2018-07-06T14:48:42.869Z,99970.34
2018-07-06T14:51:12.952Z,99971.44
2018-07-06T14:53:43.134Z,99977.32
2018-07-06T14:56:13.842Z,99975.86
2018-07-06T14:58:43.995Z,99971.14
2018-07-06T15:01:13.877Z,99976.53
2018-07-06T15:03:43.885Z,99976.70
2018-07-06T15:06:13.766Z,99973.00
2018-07-06T15:08:44.371Z,99971.97
2018-07-06T15:11:14.488Z,99977.67
2018-07-06T15:13:44.505Z,99971.17
2018-07-06T15:16:14.310Z,99973.40
2018-07-06T15:18:44.140Z,99968.17
2018-07-06T15:21:14.079Z,99972.34
2018-07-06T15:23:43.901Z,99973.78
2018-07-06T15:26:13.833Z,99973.30
2018-07-06T15:28:43.863Z,99968.16
2018-07-06T15:31:13.907Z,99980.11
2018-07-06T15:33:43.804Z,99978.19
2018-07-06T15:36:13.834Z,99991.25
2018-07-06T15:38:44.073Z,99983.03
2018-07-06T15:41:14.387Z,99991.27
2018-07-06T15:43:44.198Z,99997.45
2018-07-06T15:46:14.063Z,99988.86
2018-07-06T15:48:44.540Z,99987.09
2018-07-06T15:51:15.321Z,99997.41
2018-07-06T15:53:46.757Z,100005.06
2018-07-06T15:56:17.334Z,100006.92
2018-07-06T15:58:48.607Z,100007.78
2018-07-06T16:01:19.274Z,100011.33
2018-07-06T16:03:49.749Z,100013.11
2018-07-06T16:06:20.318Z,100014.75
2018-07-06T16:08:51.709Z,100020.22
2018-07-06T16:11:22.461Z,100025.25
2018-07-06T16:13:53.450Z,100030.61
2018-07-06T16:16:24.309Z,100026.67
2018-07-06T16:18:55.629Z,100027.59
2018-07-06T16:21:26.314Z,100037.86
2018-07-06T16:23:57.585Z,100040.22
2018-07-06T16:26:28.273Z,100041.83
2018-07-06T16:28:59.988Z,100035.94
2018-07-06T16:31:32.053Z,100047.82
2018-07-06T16:34:02.275Z,100050.02
2018-07-06T16:36:32.195Z,100044.02
2018-07-06T16:39:02.702Z,100055.11
2018-07-06T16:41:33.413Z,100061.84
2018-07-06T16:44:04.403Z,100064.34
2018-07-06T16:46:35.342Z,100065.70
2018-07-06T16:49:06.777Z,100074.19
2018-07-06T16:51:37.302Z,100067.30
2018-07-06T16:54:08.661Z,100078.56
2018-07-06T16:56:39.329Z,100081.55
2018-07-06T16:59:10.650Z,100082.58
2018-07-06T17:01:41.261Z,100083.49
2018-07-06T17:04:12.601Z,100094.87
2018-07-06T17:06:43.314Z,100095.17
2018-07-06T17:09:14.606Z,100090.65
2018-07-06T17:11:45.269Z,100085.52
2018-07-06T17:14:16.631Z,100098.91
2018-07-06T17:16:47.331Z,100098.23
2018-07-06T17:19:18.663Z,100102.02
2018-07-06T17:21:49.253Z,100099.95
2018-07-06T17:24:20.604Z,100111.20
2018-07-06T17:26:51.264Z,100103.63
2018-07-06T17:29:22.606Z,100107.73
2018-07-06T17:31:53.134Z,100111.02
2018-07-06T17:34:23.574Z,100111.98
2018-07-06T17:36:53.533Z,100115.05
2018-07-06T17:39:23.353Z,100125.07
2018-07-06T17:41:54.661Z,100125.14
2018-07-06T17:44:25.362Z,100126.17
2018-07-06T17:46:56.269Z,100124.52
2018-07-06T17:49:28.308Z,100126.78
2018-07-06T17:51:58.225Z,100135.25
2018-07-06T17:54:28.645Z,100131.98
2018-07-06T17:56:59.322Z,100132.26
2018-07-06T17:59:30.706Z,100134.80
2018-07-06T18:02:01.299Z,100133.73
2018-07-06T18:04:32.608Z,100139.80
2018-07-06T18:07:03.409Z,100141.13
2018-07-06T18:09:34.373Z,100145.15
2018-07-06T18:12:05.734Z,100150.18
2018-07-06T18:14:36.798Z,100151.25
2018-07-06T18:17:07.345Z,100152.84
2018-07-06T18:19:38.771Z,100156.77
2018-07-06T18:22:09.440Z,100172.16
2018-07-06T18:24:40.439Z,100175.64
2018-07-06T18:27:11.355Z,100177.29
2018-07-06T18:29:42.646Z,100183.48
2018-07-06T18:32:12.514Z,100178.74
2018-07-06T18:34:43.326Z,100182.33
2018-07-06T18:37:14.758Z,100187.84
2018-07-06T18:39:45.492Z,100188.62
2018-07-06T18:42:16.386Z,100189.45
2018-07-06T18:44:47.458Z,100197.31
2018-07-06T18:47:18.349Z,100194.77
2018-07-06T18:49:49.340Z,100195.65
2018-07-06T18:52:19.313Z,100203.84
2018-07-06T18:54:49.333Z,100209.27
2018-07-06T18:57:21.499Z,100207.91
2018-07-06T18:59:51.353Z,100223.02
2018-07-06T19:02:22.314Z,100220.03
2018-07-06T19:04:53.609Z,100224.27
2018-07-06T19:07:24.426Z,100225.62
2018-07-06T19:09:55.416Z,100231.81
2018-07-06T19:12:26.294Z,100229.88
2018-07-06T19:14:57.704Z,100231.30
2018-07-06T19:17:28.270Z,100237.55
2018-07-06T19:19:59.926Z,100242.92
2018-07-06T19:22:30.485Z,100250.63
2018-07-06T19:25:01.327Z,100242.17
2018-07-06T19:27:32.646Z,100246.11
2018-07-06T19:30:03.450Z,100250.55
2018-07-06T19:32:35.030Z,100247.80
2018-07-06T19:35:05.537Z,100257.57
2018-07-06T19:37:36.682Z,100259.98
2018-07-06T19:40:06.574Z,100255.84
2018-07-06T19:42:37.597Z,100259.86
2018-07-06T19:45:08.430Z,100264.37
2018-07-06T19:47:39.575Z,100263.25
2018-07-06T19:50:10.469Z,100261.30
2018-07-06T19:52:41.410Z,100261.25
2018-07-06T19:55:12.348Z,100260.95
2018-07-06T19:57:43.349Z,100260.12
2018-07-06T20:00:14.690Z,100261.94
2018-07-06T20:02:45.366Z,100262.05
2018-07-06T20:05:16.659Z,100258.33
2018-07-06T20:07:47.455Z,100258.93
2018-07-06T20:10:18.498Z,100254.88
2018-07-06T20:12:49.346Z,100262.02
2018-07-06T20:15:20.675Z,100267.74
2018-07-06T20:17:51.638Z,100269.11
2018-07-06T20:20:21.542Z,100273.46
2018-07-06T20:22:52.340Z,100274.33
2018-07-06T20:25:23.650Z,100268.94
2018-07-06T20:27:54.375Z,100275.14
2018-07-06T20:30:25.767Z,100279.48
2018-07-06T20:32:55.636Z,100286.83
2018-07-06T20:35:26.458Z,100279.12
2018-07-06T20:37:57.389Z,100283.82
2018-07-06T20:40:28.441Z,100285.25
2018-07-06T20:42:59.538Z,100282.59
2018-07-06T20:45:30.427Z,100278.39
2018-07-06T20:48:01.385Z,100279.07
2018-07-06T20:50:33.133Z,100279.95
2018-07-06T20:53:05.596Z,100282.45
2018-07-06T20:55:36.574Z,100274.80
2018-07-06T20:58:07.289Z,100280.34
2018-07-06T21:00:37.423Z,100281.59
2018-07-06T21:03:07.322Z,100281.12
2018-07-06T21:05:38.042Z,100283.14
2018-07-06T21:08:08.596Z,100289.98
2018-07-06T21:10:41.068Z,100287.42
2018-07-06T21:13:11.235Z,100295.95
2018-07-06T21:15:41.673Z,100290.99
2018-07-06T21:18:12.290Z,100296.82
2018-07-06T21:20:43.772Z,100297.56
2018-07-06T21:23:14.306Z,100292.30
2018-07-06T21:25:44.674Z,100285.92
2018-07-06T21:28:15.399Z,100285.45
2018-07-06T21:30:46.323Z,100285.58
2018-07-06T21:33:17.926Z,100282.47
2018-07-06T21:35:48.424Z,100285.29
2018-07-06T21:38:19.359Z,100283.03
2018-07-06T21:40:51.489Z,100282.11
2018-07-06T21:43:21.374Z,100277.36
2018-07-06T21:45:52.649Z,100286.98
2018-07-06T21:48:23.505Z,100284.64
2018-07-06T21:50:54.366Z,100281.77
2018-07-06T21:53:29.574Z,100292.44
2018-07-06T21:56:00.322Z,100294.75
2018-07-06T21:58:30.500Z,100297.34
2018-07-06T22:01:01.076Z,100305.03
2018-07-06T22:03:31.319Z,100300.58
2018-07-06T22:06:01.181Z,100306.08
2018-07-06T22:08:31.634Z,100310.86
2018-07-06T22:11:02.361Z,100315.52
2018-07-06T22:13:32.277Z,100310.05
2018-07-06T22:16:04.057Z,100316.17
2018-07-06T22:18:34.592Z,100324.67
2018-07-06T22:21:05.346Z,100327.48
2018-07-06T22:23:36.900Z,100330.28
2018-07-06T22:26:07.451Z,100327.70
2018-07-06T22:28:38.285Z,100329.98
2018-07-06T22:31:09.721Z,100334.44
2018-07-06T22:33:40.277Z,100330.00
2018-07-06T22:36:11.641Z,100332.19
2018-07-06T22:38:42.333Z,100330.70
2018-07-06T22:41:13.647Z,100330.61
2018-07-06T22:43:44.367Z,100340.56
2018-07-06T22:46:16.042Z,100336.63
2018-07-06T22:48:46.538Z,100341.08
2018-07-06T22:51:17.593Z,100340.05
2018-07-06T22:53:48.267Z,100337.05
2018-07-06T22:56:19.731Z,100336.11
2018-07-06T22:58:50.449Z,100336.31
2018-07-06T23:01:21.333Z,100332.19
2018-07-06T23:03:51.213Z,100337.56
2018-07-06T23:06:22.610Z,100336.95
2018-07-06T23:08:53.254Z,100336.02
2018-07-06T23:11:24.925Z,100336.13
2018-07-06T23:13:55.377Z,100334.88
2018-07-06T23:16:26.615Z,100337.14
2018-07-06T23:18:57.263Z,100337.33
2018-07-06T23:21:28.595Z,100333.41
2018-07-06T23:23:59.377Z,100333.81
2018-07-06T23:26:30.652Z,100332.57
2018-07-06T23:29:01.270Z,100328.33
2018-07-06T23:31:31.845Z,100331.42
2018-07-06T23:34:02.325Z,100331.34
2018-07-06T23:36:33.589Z,100331.94
2018-07-06T23:39:03.501Z,100328.41
2018-07-06T23:41:34.714Z,100332.86
2018-07-06T23:44:05.417Z,100332.23
2018-07-06T23:46:36.305Z,100330.45
2018-07-06T23:49:06.524Z,100327.14
2018-07-06T23:51:37.350Z,100326.52
2018-07-06T23:54:08.741Z,100328.77
2018-07-06T23:56:39.332Z,100327.95
2018-07-06T23:59:10.581Z,100324.64
